createdAt,value
2023-02-11T00:01:35.624Z,101005.31
2023-02-11T00:04:04.367Z,101005.94
2023-02-11T00:06:32.539Z,101009.84
2023-02-11T00:08:59.704Z,101009.81
2023-02-11T00:11:30.499Z,101010.84
2023-02-11T00:13:59.659Z,100999.09
2023-02-11T00:16:26.471Z,101006.34
2023-02-11T00:18:54.206Z,101009.84
2023-02-11T00:21:25.631Z,101021.66
2023-02-11T00:23:52.832Z,101023.31
2023-02-11T00:26:22.078Z,101016.47
2023-02-11T00:28:50.268Z,101024.13
2023-02-11T00:31:18.334Z,101027.63
2023-02-11T00:33:45.898Z,101026.78
2023-02-11T00:36:18.594Z,101042.09
2023-02-11T00:38:48.197Z,101037.34
2023-02-11T00:41:15.485Z,101042.28
2023-02-11T00:43:42.479Z,101032.38
2023-02-11T00:46:10.109Z,101031.97
2023-02-11T00:48:36.993Z,101015.63
2023-02-11T00:51:04.428Z,101021.84
2023-02-11T00:53:31.794Z,101023.06
2023-02-11T00:55:58.845Z,101017.28
2023-02-11T00:58:25.884Z,101016.06
2023-02-11T01:00:53.698Z,101021.03
2023-02-11T01:03:20.633Z,101016.88
2023-02-11T01:05:48.500Z,101022.88
2023-02-11T01:08:15.712Z,101019.16
2023-02-11T01:10:44.020Z,101020.41
2023-02-11T01:13:11.009Z,101021.25
2023-02-11T01:15:38.158Z,101024.72
2023-02-11T01:18:05.827Z,101039.66
2023-02-11T01:20:32.733Z,101038.34
2023-02-11T01:22:59.540Z,101042.69
2023-02-11T01:25:26.432Z,101045.97
2023-02-11T01:27:53.165Z,101049.72
2023-02-11T01:30:20.021Z,101055.28
2023-02-11T01:32:47.488Z,101062.09
2023-02-11T01:35:14.488Z,101070.78
2023-02-11T01:37:41.974Z,101076.16
2023-02-11T01:40:14.169Z,101073.28
2023-02-11T01:42:41.385Z,101074.72
2023-02-11T01:45:47.070Z,101077.19
2023-02-11T01:48:17.889Z,101080.09
2023-02-11T01:50:47.364Z,101075.16
2023-02-11T01:53:33.132Z,101082.81
2023-02-11T01:58:47.687Z,101063.00
2023-02-11T02:01:18.491Z,101062.78
2023-02-11T02:03:47.009Z,101064.84
2023-02-11T02:06:20.240Z,101075.19
2023-02-11T02:09:16.741Z,101071.25
2023-02-11T02:11:43.628Z,101076.44
2023-02-11T02:14:10.407Z,101078.50
2023-02-11T02:16:37.992Z,101076.84
2023-02-11T02:19:32.849Z,101079.09
2023-02-11T02:22:34.058Z,101078.06
2023-02-11T02:25:16.292Z,101080.97
2023-02-11T02:27:55.863Z,101081.81
2023-02-11T02:30:50.919Z,101089.44
2023-02-11T02:33:32.792Z,101085.94
2023-02-11T02:36:16.088Z,101083.88
2023-02-11T02:38:58.869Z,101091.94
2023-02-11T02:41:30.298Z,101095.03
2023-02-11T02:43:57.216Z,101098.31
2023-02-11T02:46:27.984Z,101088.44
2023-02-11T02:48:56.131Z,101095.03
2023-02-11T02:51:31.772Z,101082.00
2023-02-11T02:54:08.458Z,101081.59
2023-02-11T02:56:44.842Z,101076.03
2023-02-11T02:59:20.874Z,101079.13
2023-02-11T03:02:22.251Z,101081.41
2023-02-11T03:05:07.697Z,101069.00
2023-02-11T03:07:48.994Z,101069.63
2023-02-11T03:10:20.369Z,101066.69
2023-02-11T03:12:48.399Z,101077.44
2023-02-11T03:15:16.151Z,101067.31
2023-02-11T03:17:46.284Z,101067.94
2023-02-11T03:20:15.049Z,101081.38
2023-02-11T03:22:48.754Z,101071.25
2023-02-11T03:25:15.934Z,101076.81
2023-02-11T03:28:07.034Z,101081.59
2023-02-11T03:31:00.256Z,101080.13
2023-02-11T03:33:40.646Z,101076.03
2023-02-11T03:36:12.098Z,101084.69
2023-02-11T03:38:45.265Z,101087.16
2023-02-11T03:41:13.895Z,101083.44
2023-02-11T03:43:45.180Z,101087.16
2023-02-11T03:46:12.748Z,101085.72
2023-02-11T03:48:43.744Z,101089.25
2023-02-11T03:51:11.229Z,101090.91
2023-02-11T03:53:39.407Z,101101.84
2023-02-11T03:56:09.007Z,101092.13
2023-02-11T03:58:35.866Z,101090.06
2023-02-11T04:01:03.095Z,101093.34
2023-02-11T04:03:30.007Z,101097.09
2023-02-11T04:05:56.780Z,101096.25
2023-02-11T04:08:23.598Z,101090.88
2023-02-11T04:10:50.327Z,101103.28
2023-02-11T04:13:17.126Z,101097.69
2023-02-11T04:15:43.941Z,101096.66
2023-02-11T04:18:10.785Z,101100.13
2023-02-11T04:20:37.562Z,101106.13
2023-02-11T04:23:04.321Z,101116.50
2023-02-11T04:25:31.243Z,101117.91
2023-02-11T04:27:58.080Z,101129.69
2023-02-11T04:30:24.913Z,101135.88
2023-02-11T04:32:51.714Z,101141.06
2023-02-11T04:35:18.570Z,101138.16
2023-02-11T04:37:45.376Z,101142.09
2023-02-11T04:40:12.569Z,101149.34
2023-02-11T04:42:39.351Z,101154.50
2023-02-11T04:45:07.901Z,101147.63
2023-02-11T04:47:34.908Z,101148.28
2023-02-11T04:50:01.707Z,101164.56
2023-02-11T04:52:28.539Z,101161.88
2023-02-11T04:54:55.316Z,101159.56
2023-02-11T04:57:22.105Z,101153.91
2023-02-11T04:59:48.971Z,101154.28
2023-02-11T05:02:15.779Z,101159.22
2023-02-11T05:04:42.533Z,101166.56
2023-02-11T05:07:09.269Z,101178.94
2023-02-11T05:09:36.010Z,101181.00
2023-02-11T05:12:02.739Z,101192.63
2023-02-11T05:14:29.498Z,101206.19
2023-02-11T05:16:56.393Z,101217.59
2023-02-11T05:19:23.226Z,101213.25
2023-02-11T05:22:01.650Z,101205.16
2023-02-11T05:24:29.308Z,101211.59
2023-02-11T05:26:56.073Z,101207.41
2023-02-11T05:29:22.924Z,101209.19
2023-02-11T05:31:49.787Z,101208.16
2023-02-11T05:34:16.628Z,101205.00
2023-02-11T05:36:43.416Z,101209.81
2023-02-11T05:39:10.418Z,101204.19
2023-02-11T05:41:38.251Z,101208.44
2023-02-11T05:44:05.151Z,101213.34
2023-02-11T05:46:31.980Z,101222.38
2023-02-11T05:48:58.896Z,101234.03
2023-02-11T05:51:25.630Z,101244.19
2023-02-11T05:53:52.906Z,101261.97
2023-02-11T05:56:19.694Z,101261.59
2023-02-11T05:58:46.515Z,101272.44
2023-02-11T06:01:13.315Z,101274.72
2023-02-11T06:03:40.251Z,101279.19
2023-02-11T06:06:11.624Z,101284.94
2023-02-11T06:08:39.491Z,101275.84
2023-02-11T06:11:06.417Z,101276.44
2023-02-11T06:13:33.361Z,101276.97
2023-02-11T06:16:01.404Z,101279.03
2023-02-11T06:18:29.573Z,101287.41
2023-02-11T06:20:56.813Z,101282.84
2023-02-11T06:23:23.762Z,101295.63
2023-02-11T06:25:51.372Z,101292.38
2023-02-11T06:28:19.212Z,101296.97
2023-02-11T06:30:46.082Z,101302.59
2023-02-11T06:33:12.876Z,101300.56
2023-02-11T06:35:39.796Z,101307.28
2023-02-11T06:38:06.687Z,101313.38
2023-02-11T06:40:33.448Z,101299.28
2023-02-11T06:43:00.244Z,101298.16
2023-02-11T06:45:27.022Z,101287.94
2023-02-11T06:47:53.791Z,101282.50
2023-02-11T06:50:20.652Z,101284.63
2023-02-11T06:52:47.488Z,101296.03
2023-02-11T06:55:14.254Z,101299.34
2023-02-11T06:57:41.168Z,101306.38
2023-02-11T07:00:08.895Z,101298.75
2023-02-11T07:02:36.100Z,101293.59
2023-02-11T07:05:03.090Z,101292.38
2023-02-11T07:07:32.384Z,101288.72
2023-02-11T07:10:00.544Z,101299.00
2023-02-11T07:12:27.380Z,101296.31
2023-02-11T07:14:54.246Z,101312.06
2023-02-11T07:17:21.089Z,101313.94
2023-02-11T07:19:47.916Z,101325.19
2023-02-11T07:22:14.953Z,101329.81
2023-02-11T07:24:41.926Z,101336.56
2023-02-11T07:27:08.685Z,101334.91
2023-02-11T07:29:35.474Z,101340.34
2023-02-11T07:32:02.221Z,101353.41
2023-02-11T07:34:29.020Z,101353.22
2023-02-11T07:36:55.838Z,101355.84
2023-02-11T07:39:22.874Z,101355.53
2023-02-11T07:41:49.648Z,101361.03
2023-02-11T07:44:17.014Z,101365.56
2023-02-11T07:46:45.344Z,101368.38
2023-02-11T07:49:12.722Z,101371.56
2023-02-11T07:51:39.495Z,101377.34
2023-02-11T07:54:06.344Z,101381.63
2023-02-11T07:56:33.163Z,101390.25
2023-02-11T07:59:02.343Z,101383.50
2023-02-11T08:01:29.568Z,101388.63
2023-02-11T08:03:57.921Z,101391.59
2023-02-11T08:06:26.495Z,101383.91
2023-02-11T08:08:53.394Z,101385.50
2023-02-11T08:11:22.564Z,101397.06
2023-02-11T08:13:50.094Z,101388.44
2023-02-11T08:16:24.931Z,101386.81
2023-02-11T08:18:53.249Z,101378.22
2023-02-11T08:21:20.619Z,101386.94
2023-02-11T08:23:48.074Z,101386.00
2023-02-11T08:26:17.856Z,101392.28
2023-02-11T08:28:45.675Z,101403.47
2023-02-11T08:31:16.443Z,101413.81
2023-02-11T08:33:43.678Z,101414.91
2023-02-11T08:36:12.665Z,101424.09
2023-02-11T08:38:39.669Z,101419.59
2023-02-11T08:41:06.795Z,101423.22
2023-02-11T08:43:34.331Z,101428.47
2023-02-11T08:46:02.420Z,101435.13
2023-02-11T08:48:30.062Z,101436.66
2023-02-11T08:50:57.412Z,101441.69
2023-02-11T08:53:24.640Z,101439.69
2023-02-11T08:55:53.188Z,101443.75
2023-02-11T08:58:20.828Z,101448.84
2023-02-11T09:00:49.196Z,101457.06
2023-02-11T09:03:16.445Z,101455.66
2023-02-11T09:05:44.609Z,101462.78
2023-02-11T09:08:11.610Z,101452.34
2023-02-11T09:10:38.524Z,101453.44
2023-02-11T09:13:05.970Z,101453.53
2023-02-11T09:15:33.672Z,101464.50
2023-02-11T09:18:00.486Z,101463.41
2023-02-11T09:20:27.631Z,101469.16
2023-02-11T09:22:56.659Z,101473.31
2023-02-11T09:25:23.455Z,101476.28
2023-02-11T09:27:51.457Z,101476.53
2023-02-11T09:30:18.519Z,101475.72
2023-02-11T09:32:45.340Z,101472.28
2023-02-11T09:35:12.127Z,101482.25
2023-02-11T09:37:38.961Z,101488.66
2023-02-11T09:40:06.155Z,101492.59
2023-02-11T09:42:50.947Z,101492.41
2023-02-11T09:45:21.150Z,101491.75
2023-02-11T09:48:01.067Z,101492.19
2023-02-11T09:50:34.654Z,101497.44
2023-02-11T09:53:17.914Z,101491.88
2023-02-11T09:55:47.174Z,101502.66
2023-02-11T09:58:21.518Z,101491.19
2023-02-11T10:01:26.619Z,101489.88
2023-02-11T10:04:15.077Z,101489.72
2023-02-11T10:06:54.080Z,101496.31
2023-02-11T10:09:29.275Z,101494.50
2023-02-11T10:12:20.496Z,101490.47
2023-02-11T10:14:56.169Z,101499.28
2023-02-11T10:17:38.201Z,101499.28
2023-02-11T10:20:10.915Z,101495.56
2023-02-11T10:22:44.572Z,101495.50
2023-02-11T10:25:23.447Z,101488.22
2023-02-11T10:27:51.430Z,101492.13
2023-02-11T10:31:03.133Z,101503.06
2023-02-11T10:33:46.789Z,101508.22
2023-02-11T10:36:15.442Z,101511.31
2023-02-11T10:38:42.902Z,101513.63
2023-02-11T10:41:26.255Z,101517.16
2023-02-11T10:43:53.099Z,101523.81
2023-02-11T10:46:23.734Z,101523.63
2023-02-11T10:48:52.943Z,101523.47
2023-02-11T10:51:23.473Z,101518.28
2023-02-11T10:54:06.223Z,101520.25
2023-02-11T10:56:35.801Z,101522.19
2023-02-11T10:59:23.846Z,101522.72
2023-02-11T11:01:53.573Z,101524.19
2023-02-11T11:04:26.450Z,101521.34
2023-02-11T11:06:53.249Z,101519.50
2023-02-11T11:09:31.351Z,101528.03
2023-02-11T11:11:58.312Z,101538.81
2023-02-11T11:14:29.002Z,101530.78
2023-02-11T11:16:56.159Z,101528.00
2023-02-11T11:19:24.794Z,101535.09
2023-02-11T11:21:56.549Z,101530.78
2023-02-11T11:24:27.574Z,101527.28
2023-02-11T11:26:57.532Z,101533.53
2023-02-11T11:29:28.772Z,101516.13
2023-02-11T11:31:59.490Z,101518.00
2023-02-11T11:34:38.748Z,101523.16
2023-02-11T11:37:24.436Z,101523.38
2023-02-11T11:40:02.637Z,101511.16
2023-02-11T11:42:32.649Z,101516.59
2023-02-11T11:45:16.203Z,101521.50
2023-02-11T11:48:12.388Z,101519.50
2023-02-11T11:50:45.430Z,101514.72
2023-02-11T11:53:30.972Z,101511.22
2023-02-11T11:56:14.694Z,101505.59
2023-02-11T11:58:41.642Z,101512.03
2023-02-11T12:01:30.028Z,101509.38
2023-02-11T12:04:21.515Z,101512.69
2023-02-11T12:07:26.172Z,101501.91
2023-02-11T12:10:12.348Z,101494.03
2023-02-11T12:13:11.490Z,101494.84
2023-02-11T12:15:54.495Z,101489.44
2023-02-11T12:18:51.739Z,101482.19
2023-02-11T12:21:24.487Z,101492.97
2023-02-11T12:24:10.520Z,101490.09
2023-02-11T12:26:49.423Z,101483.66
2023-02-11T12:29:48.338Z,101476.41
2023-02-11T12:32:31.870Z,101480.34
2023-02-11T12:35:05.919Z,101463.13
2023-02-11T12:37:32.674Z,101466.84
2023-02-11T12:40:13.446Z,101464.34
2023-02-11T12:43:16.637Z,101471.41
2023-02-11T12:46:02.577Z,101464.75
2023-02-11T12:48:38.491Z,101470.75
2023-02-11T12:51:11.210Z,101462.59
2023-02-11T12:53:56.919Z,101457.72
2023-02-11T12:56:29.755Z,101456.63
2023-02-11T12:58:59.355Z,101449.41
2023-02-11T13:01:26.885Z,101452.56
2023-02-11T13:04:08.537Z,101457.97
2023-02-11T13:06:58.035Z,101462.44
2023-02-11T13:09:28.224Z,101468.72
2023-02-11T13:11:57.077Z,101468.84
2023-02-11T13:14:23.729Z,101465.91
2023-02-11T13:16:51.104Z,101455.09
2023-02-11T13:19:37.044Z,101449.72
2023-02-11T13:22:31.691Z,101436.25
2023-02-11T13:25:06.654Z,101447.38
2023-02-11T13:28:09.402Z,101453.97
2023-02-11T13:30:39.626Z,101464.56
2023-02-11T13:33:18.380Z,101465.63
2023-02-11T13:35:57.441Z,101459.59
2023-02-11T13:38:26.550Z,101458.06
2023-02-11T13:41:02.103Z,101455.75
2023-02-11T13:43:30.078Z,101455.97
2023-02-11T13:46:10.146Z,101457.88
2023-02-11T13:48:39.392Z,101460.91
2023-02-11T13:51:08.821Z,101465.84
2023-02-11T13:53:52.320Z,101476.03
2023-02-11T13:56:31.751Z,101474.94
2023-02-11T13:59:02.093Z,101466.34
2023-02-11T14:01:42.570Z,101470.09
2023-02-11T14:04:42.803Z,101470.00
2023-02-11T14:08:00.726Z,101461.00
2023-02-11T14:10:43.007Z,101465.06
2023-02-11T14:13:29.541Z,101462.44
2023-02-11T14:16:15.847Z,101470.25
2023-02-11T14:18:56.167Z,101469.59
2023-02-11T14:21:32.442Z,101467.38
2023-02-11T14:24:02.363Z,101470.25
2023-02-11T14:26:45.612Z,101466.31
2023-02-11T14:29:14.600Z,101478.78
2023-02-11T14:31:53.756Z,101482.59
2023-02-11T14:34:26.903Z,101472.00
2023-02-11T14:37:12.251Z,101468.19
2023-02-11T14:39:46.536Z,101477.50
2023-02-11T14:42:19.037Z,101485.16
2023-02-11T14:44:48.069Z,101478.19
2023-02-11T14:47:20.873Z,101487.56
2023-02-11T14:49:48.508Z,101485.66
2023-02-11T14:52:28.161Z,101499.03
2023-02-11T14:55:40.338Z,101490.66
2023-02-11T14:58:27.967Z,101490.38
2023-02-11T15:01:19.141Z,101491.09
2023-02-11T15:03:49.539Z,101483.69
2023-02-11T15:06:22.694Z,101485.75
2023-02-11T15:08:53.041Z,101504.06
2023-02-11T15:11:21.933Z,101502.19
2023-02-11T15:13:50.539Z,101509.72
2023-02-11T15:16:23.091Z,101508.19
2023-02-11T15:18:53.589Z,101505.72
2023-02-11T15:21:26.268Z,101494.84
2023-02-11T15:24:06.394Z,101500.63
2023-02-11T15:26:33.525Z,101506.72
2023-02-11T15:29:00.336Z,101509.13
2023-02-11T15:31:28.280Z,101500.97
2023-02-11T15:33:55.466Z,101515.56
2023-02-11T15:36:28.763Z,101513.38
2023-02-11T15:39:18.500Z,101510.09
2023-02-11T15:41:45.498Z,101511.66
2023-02-11T15:44:32.900Z,101513.09
2023-02-11T15:47:00.321Z,101517.34
2023-02-11T15:49:27.626Z,101526.56
2023-02-11T15:51:57.092Z,101524.16
2023-02-11T15:54:26.881Z,101528.41
2023-02-11T15:56:55.602Z,101535.34
2023-02-11T15:59:35.579Z,101537.91
2023-02-11T16:02:17.842Z,101543.31
2023-02-11T16:04:55.543Z,101546.25
2023-02-11T16:07:49.712Z,101541.25
2023-02-11T16:10:19.358Z,101547.16
2023-02-11T16:12:53.989Z,101557.75
2023-02-11T16:15:44.204Z,101564.06
2023-02-11T16:18:52.018Z,101557.41
2023-02-11T16:21:36.395Z,101563.00
2023-02-11T16:24:04.000Z,101562.59
2023-02-11T16:26:43.136Z,101568.44
2023-02-11T16:29:18.293Z,101580.91
2023-02-11T16:31:47.434Z,101582.16
2023-02-11T16:34:28.029Z,101578.41
2023-02-11T16:36:54.817Z,101576.75
2023-02-11T16:39:22.862Z,101576.97
2023-02-11T16:41:53.090Z,101582.13
2023-02-11T16:44:20.057Z,101592.88
2023-02-11T16:46:47.209Z,101594.75
2023-02-11T16:49:24.518Z,101597.66
2023-02-11T16:51:53.480Z,101593.72
2023-02-11T16:54:20.816Z,101598.72
2023-02-11T16:56:47.691Z,101602.44
2023-02-11T16:59:14.624Z,101607.44
2023-02-11T17:01:42.603Z,101605.56
2023-02-11T17:04:25.903Z,101608.06
2023-02-11T17:06:53.138Z,101605.31
2023-02-11T17:09:22.580Z,101604.31
2023-02-11T17:11:49.824Z,101612.75
2023-02-11T17:14:16.895Z,101614.41
2023-02-11T17:16:45.316Z,101614.47
2023-02-11T17:19:13.594Z,101628.44
2023-02-11T17:21:47.216Z,101640.03
2023-02-11T17:24:16.888Z,101641.81
2023-02-11T17:26:44.574Z,101649.53
2023-02-11T17:29:14.321Z,101647.38
2023-02-11T17:31:41.320Z,101646.69
2023-02-11T17:34:08.486Z,101656.25
2023-02-11T17:36:35.476Z,101659.47
2023-02-11T17:39:03.338Z,101648.63
2023-02-11T17:41:31.207Z,101671.06
2023-02-11T17:43:59.024Z,101667.03
2023-02-11T17:46:25.927Z,101678.47
2023-02-11T17:48:53.230Z,101679.22
2023-02-11T17:51:31.224Z,101678.19
2023-02-11T17:53:59.765Z,101678.16
2023-02-11T17:56:26.568Z,101680.22
2023-02-11T17:58:53.459Z,101684.69
2023-02-11T18:01:20.669Z,101676.91
2023-02-11T18:03:47.949Z,101686.63
2023-02-11T18:06:14.853Z,101689.75
2023-02-11T18:08:45.238Z,101690.59
2023-02-11T18:11:13.177Z,101688.47
2023-02-11T18:13:40.021Z,101694.94
2023-02-11T18:16:08.679Z,101698.44
2023-02-11T18:18:35.581Z,101699.16
2023-02-11T18:21:08.963Z,101691.94
2023-02-11T18:23:36.340Z,101704.50
2023-02-11T18:26:03.215Z,101700.50
2023-02-11T18:28:30.165Z,101706.41
2023-02-11T18:30:58.956Z,101706.31
2023-02-11T18:33:26.246Z,101719.34
2023-02-11T18:35:53.242Z,101715.81
2023-02-11T18:38:20.457Z,101704.59
2023-02-11T18:40:49.765Z,101720.78
2023-02-11T18:43:20.509Z,101723.28
2023-02-11T18:45:48.691Z,101721.38
2023-02-11T18:48:16.834Z,101719.72
2023-02-11T18:50:45.285Z,101718.16
2023-02-11T18:53:15.699Z,101720.72
2023-02-11T18:55:44.056Z,101723.88
2023-02-11T18:58:11.256Z,101727.34
2023-02-11T19:00:40.475Z,101726.50
2023-02-11T19:03:07.399Z,101730.00
2023-02-11T19:05:42.013Z,101735.09
2023-02-11T19:08:08.855Z,101735.00
2023-02-11T19:10:35.675Z,101734.31
2023-02-11T19:13:02.527Z,101731.88
2023-02-11T19:15:29.233Z,101735.00
2023-02-11T19:17:56.075Z,101728.28
2023-02-11T19:20:23.077Z,101741.31
2023-02-11T19:22:50.156Z,101731.16
2023-02-11T19:25:17.031Z,101723.75
2023-02-11T19:27:43.964Z,101727.13
2023-02-11T19:30:11.108Z,101729.44
2023-02-11T19:32:37.863Z,101734.81
2023-02-11T19:35:04.868Z,101734.75
2023-02-11T19:37:31.670Z,101729.50
2023-02-11T19:39:58.412Z,101732.00
2023-02-11T19:42:27.596Z,101725.19
2023-02-11T19:44:54.558Z,101738.63
2023-02-11T19:47:27.619Z,101746.03
2023-02-11T19:49:54.859Z,101746.34
2023-02-11T19:52:21.692Z,101746.16
2023-02-11T19:54:48.521Z,101752.19
2023-02-11T19:57:15.232Z,101753.44
2023-02-11T19:59:42.207Z,101745.16
2023-02-11T20:02:11.591Z,101750.91
2023-02-11T20:04:38.791Z,101753.28
2023-02-11T20:07:06.093Z,101760.88
2023-02-11T20:09:33.144Z,101759.59
2023-02-11T20:12:00.097Z,101762.81
2023-02-11T20:14:28.110Z,101751.81
2023-02-11T20:16:55.141Z,101755.50
2023-02-11T20:19:22.535Z,101757.56
2023-02-11T20:21:52.339Z,101765.03
2023-02-11T20:24:19.784Z,101763.28
2023-02-11T20:26:48.532Z,101777.44
2023-02-11T20:29:18.780Z,101770.03
2023-02-11T20:31:45.988Z,101772.97
2023-02-11T20:34:13.134Z,101767.22
2023-02-11T20:36:40.686Z,101769.13
2023-02-11T20:39:07.906Z,101772.25
2023-02-11T20:41:36.683Z,101784.84
2023-02-11T20:44:06.945Z,101774.28
2023-02-11T20:46:34.497Z,101776.06
2023-02-11T20:49:01.818Z,101772.84
2023-02-11T20:51:30.839Z,101762.41
2023-02-11T20:53:57.980Z,101761.94
2023-02-11T20:56:26.820Z,101761.06
2023-02-11T20:58:53.553Z,101765.75
2023-02-11T21:01:21.760Z,101760.56
2023-02-11T21:04:03.434Z,101753.53
2023-02-11T21:06:36.673Z,101758.44
2023-02-11T21:09:05.030Z,101752.53
2023-02-11T21:11:31.963Z,101751.97
2023-02-11T21:13:59.147Z,101751.81
2023-02-11T21:16:26.473Z,101758.88
2023-02-11T21:18:53.521Z,101766.34
2023-02-11T21:21:20.617Z,101757.16
2023-02-11T21:23:47.944Z,101757.16
2023-02-11T21:26:15.806Z,101764.41
2023-02-11T21:28:42.780Z,101766.59
2023-02-11T21:31:11.229Z,101775.69
2023-02-11T21:33:38.373Z,101788.00
2023-02-11T21:36:07.837Z,101782.25
2023-02-11T21:38:34.902Z,101783.84
2023-02-11T21:41:05.625Z,101783.84
2023-02-11T21:43:32.840Z,101786.63
2023-02-11T21:46:00.204Z,101783.38
2023-02-11T21:48:27.200Z,101789.88
2023-02-11T21:50:54.018Z,101790.34
2023-02-11T21:53:20.934Z,101782.94
2023-02-11T21:55:47.776Z,101788.72
2023-02-11T21:58:14.809Z,101789.56
2023-02-11T22:00:41.692Z,101803.69
2023-02-11T22:03:08.608Z,101798.38
2023-02-11T22:05:35.381Z,101796.53
2023-02-11T22:08:02.247Z,101793.97
2023-02-11T22:10:29.062Z,101785.16
2023-02-11T22:12:55.935Z,101788.66
2023-02-11T22:15:22.804Z,101781.31
2023-02-11T22:17:49.564Z,101782.31
2023-02-11T22:20:16.932Z,101783.38
2023-02-11T22:22:43.823Z,101789.56
2023-02-11T22:25:10.714Z,101792.19
2023-02-11T22:27:37.586Z,101793.25
2023-02-11T22:30:05.669Z,101785.72
2023-02-11T22:32:32.570Z,101793.50
2023-02-11T22:34:59.417Z,101797.56
2023-02-11T22:37:26.363Z,101794.66
2023-02-11T22:39:53.222Z,101808.78
2023-02-11T22:42:20.127Z,101806.03
2023-02-11T22:44:47.058Z,101805.22
2023-02-11T22:47:13.834Z,101802.44
2023-02-11T22:49:41.412Z,101804.25
2023-02-11T22:52:08.420Z,101801.84
2023-02-11T22:54:36.342Z,101805.81
2023-02-11T22:57:03.344Z,101811.97
2023-02-11T22:59:30.191Z,101809.28
2023-02-11T23:01:57.226Z,101813.47
2023-02-11T23:04:24.152Z,101815.97
2023-02-11T23:06:50.987Z,101813.03
2023-02-11T23:09:17.823Z,101807.38
2023-02-11T23:11:44.828Z,101811.66
2023-02-11T23:14:12.372Z,101810.53
2023-02-11T23:16:39.410Z,101807.47
2023-02-11T23:19:08.731Z,101813.84
2023-02-11T23:21:37.860Z,101812.50
2023-02-11T23:24:07.992Z,101810.63
2023-02-11T23:26:34.974Z,101817.63
2023-02-11T23:29:01.909Z,101819.50
2023-02-11T23:31:37.651Z,101827.59
2023-02-11T23:34:05.092Z,101829.75
2023-02-11T23:36:32.511Z,101827.13
2023-02-11T23:38:59.452Z,101820.59
2023-02-11T23:41:26.200Z,101819.22
2023-02-11T23:43:55.884Z,101822.03
2023-02-11T23:46:23.888Z,101824.81
2023-02-11T23:48:51.250Z,101817.94
2023-02-11T23:51:18.268Z,101826.16
2023-02-11T23:53:49.362Z,101819.63
2023-02-11T23:56:21.727Z,101829.31
2023-02-11T23:58:49.837Z,101832.03
